Svitzer Stanlow — MLNF7 — position and weather

sailwx.info

Track history (hours):
 
Tides and Currents Weather Stations Pressure Air Temp Water Temp Dewpoint Dewpoint Depression Visibility Wind Speed Wind Dir Waves Ship Positions

Svitzer Stanlow

Last reported at 2015-Aug-30 21:31 UTC. Time now 2015-Aug-30 22:35 UTC.
Position N 53°23' W 003°00'.

Length 39 m.

Type: Tug. MMSI: 235010620.

Date/timePositionNaut miles runAvg speedWind from/ knotsBaromVisibWave heightAir tempDewpointWater temp
2015-Aug-30 21:31N 53°23' W 003°00'0 0.0
2015-Aug-30 20:25N 53°23' W 003°00'0 0.0
2015-Aug-30 19:31N 53°23' W 003°00'0 0.0
2015-Aug-30 18:31N 53°23' W 003°00'0 0.0
2015-Aug-30 17:31N 53°23' W 003°00'0 0.0
2015-Aug-30 16:31N 53°23' W 003°00'0 0.0
2015-Aug-30 15:31N 53°23' W 003°00'0 0.0
2015-Aug-30 14:31N 53°23' W 003°00'0 0.0
2015-Aug-30 13:28N 53°23' W 003°00'0 0.0
2015-Aug-30 12:31N 53°23' W 003°00'0 0.2
2015-Aug-30 11:31N 53°23' W 002°60'5 5.1
2015-Aug-30 10:33N 53°27' W 003°02'8 8.0
2015-Aug-30 09:32N 53°31' W 003°15'6 5.6
2015-Aug-30 08:33N 53°30' W 003°06'5 4.6
2015-Aug-30 07:31N 53°26' W 003°01'1 1.0
2015-Aug-30 06:32N 53°25' W 003°00'0 0.0
2015-Aug-30 05:31N 53°25' W 003°00'0 0.0
2015-Aug-30 04:25N 53°25' W 003°00'0 0.0
2015-Aug-30 03:31N 53°25' W 003°00'0 0.0
2015-Aug-30 02:31N 53°25' W 003°00'0 0.0
2015-Aug-30 01:31N 53°25' W 003°00'0 0.0
2015-Aug-30 00:31N 53°25' W 003°00'0 0.0
2015-Aug-29 23:31N 53°25' W 003°00'0 0.0
2015-Aug-29 22:31N 53°25' W 003°00'0 0.0
2015-Aug-29 21:28N 53°25' W 003°00'0 0.0
2015-Aug-29 20:31N 53°25' W 003°00'0 0.0
2015-Aug-29 19:28N 53°25' W 003°00'0 0.0
2015-Aug-29 18:31N 53°25' W 003°00'0 0.0
2015-Aug-29 17:28N 53°25' W 003°00'0 0.0
2015-Aug-29 16:31N 53°25' W 003°00'0 0.0
2015-Aug-29 15:31N 53°25' W 003°00'0 0.0
2015-Aug-29 14:31N 53°25' W 003°00'0 0.0
2015-Aug-29 13:31N 53°25' W 003°00'0 0.0
2015-Aug-29 12:31N 53°25' W 003°00'1 1.0
2015-Aug-29 11:31N 53°26' W 003°01'4 3.9
2015-Aug-29 10:32N 53°23' W 002°60'0 0.2
2015-Aug-29 09:31N 53°23' W 003°00'0 0.0
2015-Aug-29 08:31N 53°23' W 003°00'0 0.0
2015-Aug-29 07:31N 53°23' W 003°00'0 0.0
2015-Aug-29 06:31N 53°23' W 003°00'0 0.0
2015-Aug-29 05:31N 53°23' W 003°00'0 0.0
2015-Aug-29 04:31N 53°23' W 003°00'0 0.0
2015-Aug-29 03:28N 53°23' W 003°00'0 0.0
2015-Aug-29 02:28N 53°23' W 003°00'0 0.0
2015-Aug-29 01:31N 53°23' W 003°00'0 0.0
2015-Aug-29 00:31N 53°23' W 003°00'0 0.0
2015-Aug-28 23:31N 53°23' W 003°00'0 0.0
2015-Aug-28 22:31N 53°23' W 003°00'0 0.0
2015-Aug-28 21:31N 53°23' W 003°00'0 0.0
2015-Aug-28 20:31N 53°23' W 003°00'0 0.0
2015-Aug-28 19:28N 53°23' W 003°00'0 0.0
2015-Aug-28 18:31N 53°23' W 003°00'0 0.0
2015-Aug-28 17:31N 53°23' W 003°00'0 0.0
2015-Aug-28 16:31N 53°23' W 003°00'0 0.0
2015-Aug-28 15:31N 53°23' W 003°00'0 0.0
2015-Aug-28 14:28N 53°23' W 003°00'0 0.0
2015-Aug-28 13:31N 53°23' W 003°00'0 0.0
2015-Aug-28 12:31N 53°23' W 003°00'0 0.0
2015-Aug-28 11:31N 53°23' W 003°00'0 0.0
2015-Aug-28 10:28N 53°23' W 003°00'0 0.0
2015-Aug-28 09:31N 53°23' W 003°00'0 0.0
2015-Aug-28 08:34N 53°23' W 003°00'0 0.0
2015-Aug-28 07:34N 53°23' W 003°00'0 0.0
2015-Aug-28 06:33N 53°23' W 003°00'0 0.0
2015-Aug-28 05:33N 53°23' W 003°00'0 0.1
2015-Aug-28 04:32N 53°23' W 002°60'0 0.0
2015-Aug-28 03:29N 53°23' W 002°60'0 0.0
2015-Aug-28 02:32N 53°23' W 002°60'0 0.0
2015-Aug-28 01:31N 53°23' W 002°60'0 0.0
2015-Aug-28 00:31N 53°23' W 002°60'0 0.0
2015-Aug-27 23:31N 53°23' W 002°60'0 0.0
2015-Aug-27 22:31N 53°23' W 002°60'0 0.1
2015-Aug-27 21:31N 53°23' W 002°60'4 3.7
2015-Aug-27 20:33N 53°26' W 003°01'9 8.6
2015-Aug-27 19:33N 53°31' W 003°13'4 3.9
2015-Aug-27 18:33N 53°31' W 003°07'9 9.1
2015-Aug-27 17:33N 53°23' W 002°60'0 0.2
2015-Aug-27 16:29N 53°23' W 002°60'0 0.0
2015-Aug-27 15:32N 53°23' W 002°60'0 0.0
2015-Aug-27 14:32N 53°23' W 002°60'0 0.0
2015-Aug-27 13:32N 53°23' W 002°60'0 0.0
2015-Aug-27 12:32N 53°23' W 002°60'0 0.0
2015-Aug-27 11:32N 53°23' W 002°60'0 0.0
2015-Aug-27 10:32N 53°23' W 002°60'0 0.0
2015-Aug-27 09:32N 53°23' W 002°60'0 0.0
2015-Aug-27 08:32N 53°23' W 002°60'0 0.0
2015-Aug-27 07:32N 53°23' W 002°60'0 0.0
2015-Aug-27 06:32N 53°23' W 002°60'5 4.6
2015-Aug-27 05:33N 53°27' W 003°02'5 4.3
2015-Aug-27 04:31N 53°23' W 002°60'0 0.0
2015-Aug-27 03:31N 53°23' W 002°60'0 0.0
2015-Aug-27 02:22N 53°23' W 002°60'0 0.0
2015-Aug-27 01:31N 53°23' W 002°60'0 0.0
2015-Aug-27 00:31N 53°23' W 002°60'0 0.0
2015-Aug-26 23:31N 53°23' W 002°60'0 0.0
2015-Aug-26 22:31N 53°23' W 002°60'0 0.0
2015-Aug-26 21:19N 53°23' W 002°60'0 0.0
2015-Aug-26 20:31N 53°23' W 002°60'0 0.0
2015-Aug-26 19:34N 53°23' W 002°60'0 0.0
2015-Aug-26 18:33N 53°23' W 002°60'0 0.0
2015-Aug-26 17:27N 53°23' W 002°60'0 0.0
2015-Aug-26 16:30N 53°23' W 002°60'0 0.0
2015-Aug-26 15:27N 53°23' W 002°60'0 0.0
2015-Aug-26 14:33N 53°23' W 002°60'0 0.0
2015-Aug-26 13:33N 53°23' W 002°60'0 0.0
2015-Aug-26 12:30N 53°23' W 002°60'0 0.0
2015-Aug-26 11:33N 53°23' W 002°60'0 0.0
2015-Aug-26 10:33N 53°23' W 002°60'0 0.0
2015-Aug-26 09:33N 53°23' W 002°60'0 0.1
2015-Aug-26 08:33N 53°23' W 002°60'1 0.8
2015-Aug-26 07:33N 53°24' W 003°00'3 3.4
2015-Aug-26 06:34N 53°27' W 003°01'0 0.3
2015-Aug-26 05:30N 53°27' W 003°01'0 0.1
2015-Aug-26 04:33N 53°27' W 003°01'  
2015-Aug-21 12:07N 53°25' W 003°00'0 0.0
2015-Aug-21 11:31N 53°25' W 003°00'0 0.0
2015-Aug-21 10:31N 53°25' W 003°00'0 0.0
2015-Aug-21 09:28N 53°25' W 003°00'0 0.0
2015-Aug-21 08:31N 53°25' W 003°00'0 0.0
2015-Aug-21 07:31N 53°25' W 003°00'0 0.0
2015-Aug-21 06:31N 53°25' W 003°00'0 0.0
2015-Aug-21 05:31N 53°25' W 003°00'0 0.0
2015-Aug-21 04:28N 53°25' W 003°00'0 0.0
2015-Aug-21 03:31N 53°25' W 003°00'0 0.0
2015-Aug-21 02:31N 53°25' W 003°00'0 0.0
2015-Aug-21 01:31N 53°25' W 003°00'0 0.0
2015-Aug-21 00:31N 53°25' W 003°00'0 0.0
2015-Aug-20 23:31N 53°25' W 003°00'0 0.0
2015-Aug-20 22:28N 53°25' W 003°00'  
Track history (hours):
 
Tides and Currents Weather Stations Pressure Air Temp Water Temp Dewpoint Dewpoint Depression Visibility Wind Speed Wind Dir Waves Ship Positions

Svitzer Stanlow

Last reported at 2015-Aug-30 21:31 UTC. Time now 2015-Aug-30 22:35 UTC.
Position N 53°23' W 003°00'.

Length 39 m.

Type: Tug. MMSI: 235010620.

Date/timePositionNaut miles runAvg speedWind from/ knotsBaromVisibWave heightAir tempDewpointWater temp
2015-Aug-30 21:31N 53°23' W 003°00'0 0.0
2015-Aug-30 20:25N 53°23' W 003°00'0 0.0
2015-Aug-30 19:31N 53°23' W 003°00'0 0.0
2015-Aug-30 18:31N 53°23' W 003°00'0 0.0
2015-Aug-30 17:31N 53°23' W 003°00'0 0.0
2015-Aug-30 16:31N 53°23' W 003°00'0 0.0
2015-Aug-30 15:31N 53°23' W 003°00'0 0.0
2015-Aug-30 14:31N 53°23' W 003°00'0 0.0
2015-Aug-30 13:28N 53°23' W 003°00'0 0.0
2015-Aug-30 12:31N 53°23' W 003°00'0 0.2
2015-Aug-30 11:31N 53°23' W 002°60'5 5.1
2015-Aug-30 10:33N 53°27' W 003°02'8 8.0
2015-Aug-30 09:32N 53°31' W 003°15'6 5.6
2015-Aug-30 08:33N 53°30' W 003°06'5 4.6
2015-Aug-30 07:31N 53°26' W 003°01'1 1.0
2015-Aug-30 06:32N 53°25' W 003°00'0 0.0
2015-Aug-30 05:31N 53°25' W 003°00'0 0.0
2015-Aug-30 04:25N 53°25' W 003°00'0 0.0
2015-Aug-30 03:31N 53°25' W 003°00'0 0.0
2015-Aug-30 02:31N 53°25' W 003°00'0 0.0
2015-Aug-30 01:31N 53°25' W 003°00'0 0.0
2015-Aug-30 00:31N 53°25' W 003°00'0 0.0
2015-Aug-29 23:31N 53°25' W 003°00'0 0.0
2015-Aug-29 22:31N 53°25' W 003°00'0 0.0
2015-Aug-29 21:28N 53°25' W 003°00'0 0.0
2015-Aug-29 20:31N 53°25' W 003°00'0 0.0
2015-Aug-29 19:28N 53°25' W 003°00'0 0.0
2015-Aug-29 18:31N 53°25' W 003°00'0 0.0
2015-Aug-29 17:28N 53°25' W 003°00'0 0.0
2015-Aug-29 16:31N 53°25' W 003°00'0 0.0
2015-Aug-29 15:31N 53°25' W 003°00'0 0.0
2015-Aug-29 14:31N 53°25' W 003°00'0 0.0
2015-Aug-29 13:31N 53°25' W 003°00'0 0.0
2015-Aug-29 12:31N 53°25' W 003°00'1 1.0
2015-Aug-29 11:31N 53°26' W 003°01'4 3.9
2015-Aug-29 10:32N 53°23' W 002°60'0 0.2
2015-Aug-29 09:31N 53°23' W 003°00'0 0.0
2015-Aug-29 08:31N 53°23' W 003°00'0 0.0
2015-Aug-29 07:31N 53°23' W 003°00'0 0.0
2015-Aug-29 06:31N 53°23' W 003°00'0 0.0
2015-Aug-29 05:31N 53°23' W 003°00'0 0.0
2015-Aug-29 04:31N 53°23' W 003°00'0 0.0
2015-Aug-29 03:28N 53°23' W 003°00'0 0.0
2015-Aug-29 02:28N 53°23' W 003°00'0 0.0
2015-Aug-29 01:31N 53°23' W 003°00'0 0.0
2015-Aug-29 00:31N 53°23' W 003°00'0 0.0
2015-Aug-28 23:31N 53°23' W 003°00'0 0.0
2015-Aug-28 22:31N 53°23' W 003°00'0 0.0
2015-Aug-28 21:31N 53°23' W 003°00'0 0.0
2015-Aug-28 20:31N 53°23' W 003°00'0 0.0
2015-Aug-28 19:28N 53°23' W 003°00'0 0.0
2015-Aug-28 18:31N 53°23' W 003°00'0 0.0
2015-Aug-28 17:31N 53°23' W 003°00'0 0.0
2015-Aug-28 16:31N 53°23' W 003°00'0 0.0
2015-Aug-28 15:31N 53°23' W 003°00'0 0.0
2015-Aug-28 14:28N 53°23' W 003°00'0 0.0
2015-Aug-28 13:31N 53°23' W 003°00'0 0.0
2015-Aug-28 12:31N 53°23' W 003°00'0 0.0
2015-Aug-28 11:31N 53°23' W 003°00'0 0.0
2015-Aug-28 10:28N 53°23' W 003°00'0 0.0
2015-Aug-28 09:31N 53°23' W 003°00'0 0.0
2015-Aug-28 08:34N 53°23' W 003°00'0 0.0
2015-Aug-28 07:34N 53°23' W 003°00'0 0.0
2015-Aug-28 06:33N 53°23' W 003°00'0 0.0
2015-Aug-28 05:33N 53°23' W 003°00'0 0.1
2015-Aug-28 04:32N 53°23' W 002°60'0 0.0
2015-Aug-28 03:29N 53°23' W 002°60'0 0.0
2015-Aug-28 02:32N 53°23' W 002°60'0 0.0
2015-Aug-28 01:31N 53°23' W 002°60'0 0.0
2015-Aug-28 00:31N 53°23' W 002°60'0 0.0
2015-Aug-27 23:31N 53°23' W 002°60'0 0.0
2015-Aug-27 22:31N 53°23' W 002°60'0 0.1
2015-Aug-27 21:31N 53°23' W 002°60'4 3.7
2015-Aug-27 20:33N 53°26' W 003°01'9 8.6
2015-Aug-27 19:33N 53°31' W 003°13'4 3.9
2015-Aug-27 18:33N 53°31' W 003°07'9 9.1
2015-Aug-27 17:33N 53°23' W 002°60'0 0.2
2015-Aug-27 16:29N 53°23' W 002°60'0 0.0
2015-Aug-27 15:32N 53°23' W 002°60'0 0.0
2015-Aug-27 14:32N 53°23' W 002°60'0 0.0
2015-Aug-27 13:32N 53°23' W 002°60'0 0.0
2015-Aug-27 12:32N 53°23' W 002°60'0 0.0
2015-Aug-27 11:32N 53°23' W 002°60'0 0.0
2015-Aug-27 10:32N 53°23' W 002°60'0 0.0
2015-Aug-27 09:32N 53°23' W 002°60'0 0.0
2015-Aug-27 08:32N 53°23' W 002°60'0 0.0
2015-Aug-27 07:32N 53°23' W 002°60'0 0.0
2015-Aug-27 06:32N 53°23' W 002°60'5 4.6
2015-Aug-27 05:33N 53°27' W 003°02'5 4.3
2015-Aug-27 04:31N 53°23' W 002°60'0 0.0
2015-Aug-27 03:31N 53°23' W 002°60'0 0.0
2015-Aug-27 02:22N 53°23' W 002°60'0 0.0
2015-Aug-27 01:31N 53°23' W 002°60'0 0.0
2015-Aug-27 00:31N 53°23' W 002°60'0 0.0
2015-Aug-26 23:31N 53°23' W 002°60'0 0.0
2015-Aug-26 22:31N 53°23' W 002°60'0 0.0
2015-Aug-26 21:19N 53°23' W 002°60'0 0.0
2015-Aug-26 20:31N 53°23' W 002°60'0 0.0
2015-Aug-26 19:34N 53°23' W 002°60'0 0.0
2015-Aug-26 18:33N 53°23' W 002°60'0 0.0
2015-Aug-26 17:27N 53°23' W 002°60'0 0.0
2015-Aug-26 16:30N 53°23' W 002°60'0 0.0
2015-Aug-26 15:27N 53°23' W 002°60'0 0.0
2015-Aug-26 14:33N 53°23' W 002°60'0 0.0
2015-Aug-26 13:33N 53°23' W 002°60'0 0.0
2015-Aug-26 12:30N 53°23' W 002°60'0 0.0
2015-Aug-26 11:33N 53°23' W 002°60'0 0.0
2015-Aug-26 10:33N 53°23' W 002°60'0 0.0
2015-Aug-26 09:33N 53°23' W 002°60'0 0.1
2015-Aug-26 08:33N 53°23' W 002°60'1 0.8
2015-Aug-26 07:33N 53°24' W 003°00'3 3.4
2015-Aug-26 06:34N 53°27' W 003°01'0 0.3
2015-Aug-26 05:30N 53°27' W 003°01'0 0.1
2015-Aug-26 04:33N 53°27' W 003°01'  
2015-Aug-21 12:07N 53°25' W 003°00'0 0.0
2015-Aug-21 11:31N 53°25' W 003°00'0 0.0
2015-Aug-21 10:31N 53°25' W 003°00'0 0.0
2015-Aug-21 09:28N 53°25' W 003°00'0 0.0
2015-Aug-21 08:31N 53°25' W 003°00'0 0.0
2015-Aug-21 07:31N 53°25' W 003°00'0 0.0
2015-Aug-21 06:31N 53°25' W 003°00'0 0.0
2015-Aug-21 05:31N 53°25' W 003°00'0 0.0
2015-Aug-21 04:28N 53°25' W 003°00'0 0.0
2015-Aug-21 03:31N 53°25' W 003°00'0 0.0
2015-Aug-21 02:31N 53°25' W 003°00'0 0.0
2015-Aug-21 01:31N 53°25' W 003°00'0 0.0
2015-Aug-21 00:31N 53°25' W 003°00'0 0.0
2015-Aug-20 23:31N 53°25' W 003°00'0 0.0
2015-Aug-20 22:28N 53°25' W 003°00'  

Dump ship's entire track history